首页
METAR-TAF:

METAR-TAF

机场 :

邓迪, 苏格兰

纬度: 56-27N, 经度: 003-01W, 海拔: 4米

当前天气观测

该预报发布于3小时和12分钟前的14:50 UTC
风速12节,风向西转西南
温度 18°C
湿度 68%
气压 1002 hPa
能见度10公里或以上
散云层高于3000英尺

METAR: EGPN 041450Z 25012KT 9999 SCT030 18/12 Q1002

时间: 19:02 (18:02 UTC)

预报

该预报发布于10小时和6分钟前的07:56 UTC
预报有效从04日的 09点(UTC)到 04日的 15点(UTC)
风速9节,风向西南
能见度10公里或以上
少量云层高于3000英尺

TAF: EGPN 040756Z 0409/0415 22009KT 9999 FEW030

超过4000个机场的气象观测和天气预报(METAR&TAF报告)。

可查询的气象台以黄色和红色小点在地图上表示。

将鼠标移到小点上方,可查看气象台名称。

然后点击查看天气观测和预报。

如需切换地图:点击带黑十字的绿色按钮放大地图;点击带横线的绿色按钮缩小地图;或者点击绿色箭头查看邻近地区的地图。


METAR-TAF: